Time;durP1;ratioP1;P1;durP2;ratioP2;P2;SDS_P1;SDS_P2;PMS_P1;PMS_P2;Temp;Humidity;BMP_temperature;BMP_pressure;BME280_temperature;BME280_humidity;BME280_pressure;Samples;Min_cycle;Max_cycle;Signal;HPM_P1;HPM_P2
2022/06/09 00:01:40;;;;;;;22.30;4.35;;;;;;;10.57;100.00;100471.38;5026772;28;20262;-79
2022/06/09 00:04:10;;;;;;;22.85;3.97;;;;;;;10.53;100.00;100478.97;5011635;28;20061;-79
2022/06/09 00:06:49;;;;;;;17.55;3.72;;;;;;;10.48;100.00;100488.59;5025115;28;20098;-80
2022/06/09 00:09:17;;;;;;;15.95;3.60;;;;;;;10.43;100.00;100493.69;5007499;28;20377;-79
2022/06/09 00:11:46;;;;;;;19.20;3.20;;;;;;;10.39;100.00;100485.13;5022548;28;20033;-80
2022/06/09 00:14:11;;;;;;;14.13;3.50;;;;;;;10.43;100.00;100488.31;5010608;28;20127;-80
2022/06/09 00:16:38;;;;;;;13.57;3.70;;;;;;;10.42;100.00;100482.06;5027525;28;20108;-79
2022/06/09 00:19:05;;;;;;;23.33;4.03;;;;;;;10.53;100.00;100495.09;4991480;28;20041;-79
2022/06/09 00:21:32;;;;;;;20.23;3.90;;;;;;;10.65;100.00;100508.09;5025764;28;20921;-79
2022/06/09 00:23:58;;;;;;;17.73;3.28;;;;;;;10.67;100.00;100503.38;5025343;28;20387;-78
2022/06/09 00:26:23;;;;;;;25.98;3.72;;;;;;;10.75;100.00;100506.81;5008309;28;20029;-77
2022/06/09 00:28:49;;;;;;;18.70;3.17;;;;;;;10.78;100.00;100502.91;4994509;28;20037;-79
2022/06/09 00:31:15;;;;;;;30.60;4.15;;;;;;;10.80;100.00;100506.28;5026577;28;20240;-78
2022/06/09 00:33:40;;;;;;;17.02;3.45;;;;;;;10.65;100.00;100473.13;5027357;28;20033;-78
2022/06/09 00:36:06;;;;;;;15.07;2.42;;;;;;;10.76;100.00;100488.81;5011125;28;20447;-79
2022/06/09 00:38:32;;;;;;;15.30;2.90;;;;;;;10.78;100.00;100484.09;5027448;28;20044;-79
2022/06/09 00:40:59;;;;;;;15.15;2.97;;;;;;;10.81;100.00;100486.41;5003112;28;20071;-78
2022/06/09 00:43:26;;;;;;;19.90;3.13;;;;;;;10.84;100.00;100485.22;5010789;28;20033;-78
2022/06/09 00:46:10;;;;;;;17.23;3.30;;;;;;;10.90;100.00;100477.25;5024282;28;20048;-79
2022/06/09 00:49:16;;;;;;;15.20;2.83;;;;;;;10.98;100.00;100463.72;5024341;28;20044;-79
2022/06/09 00:51:44;;;;;;;19.77;3.15;;;;;;;10.92;100.00;100439.41;4939025;28;20034;-78
2022/06/09 00:54:31;;;;;;;20.27;3.40;;;;;;;10.97;100.00;100467.41;4980390;28;21566;-79
2022/06/09 00:57:09;;;;;;;19.80;3.42;;;;;;;10.97;100.00;100467.41;4986358;28;20135;-78
2022/06/09 00:59:36;;;;;;;13.82;3.08;;;;;;;10.97;100.00;100458.50;5004012;28;20029;-78
2022/06/09 01:02:06;;;;;;;17.77;3.60;;;;;;;10.98;100.00;100452.09;5009038;28;20387;-79
2022/06/09 01:04:32;;;;;;;15.75;3.35;;;;;;;10.94;100.00;100432.81;5043674;28;20061;-79
2022/06/09 01:07:22;;;;;;;19.08;3.35;;;;;;;10.93;100.00;100436.53;5021931;28;20053;-79
2022/06/09 01:09:47;;;;;;;18.13;3.42;;;;;;;10.90;100.00;100430.66;5019111;28;20114;-79
2022/06/09 01:12:30;;;;;;;13.20;2.90;;;;;;;10.88;100.00;100438.13;5026383;28;20025;-79
2022/06/09 01:15:00;;;;;;;15.73;4.07;;;;;;;10.85;100.00;100425.88;5007187;28;20736;-79
2022/06/09 01:17:34;;;;;;;13.98;3.03;;;;;;;10.68;100.00;100394.78;5006569;28;20286;-80
2022/06/09 01:20:04;;;;;;;;;;;;;;;10.83;100.00;100429.75;5010112;28;20030;-79
2022/06/09 01:22:45;;;;;;;12.30;3.53;;;;;;;10.80;100.00;100430.97;5021495;28;19925;-79
2022/06/09 01:25:22;;;;;;;14.73;2.97;;;;;;;10.82;100.00;100426.22;5004334;28;20046;-80
2022/06/09 01:28:15;;;;;;;16.45;3.38;;;;;;;10.84;100.00;100415.28;5002870;28;20029;-79
2022/06/09 01:30:57;;;;;;;10.38;2.55;;;;;;;10.82;100.00;100406.56;5010945;28;20033;-78
2022/06/09 01:33:42;;;;;;;8.68;2.95;;;;;;;10.76;100.00;100400.91;5020971;28;20033;-79
2022/06/09 01:36:12;;;;;;;13.73;3.00;;;;;;;10.76;100.00;100408.13;5008102;28;20391;-79
2022/06/09 01:38:56;;;;;;;12.02;3.33;;;;;;;10.67;100.00;100385.06;5011387;28;20405;-80
2022/06/09 01:41:23;;;;;;;15.50;3.05;;;;;;;10.71;100.00;100399.78;5009176;28;20100;-79
2022/06/09 01:43:50;;;;;;;12.90;2.97;;;;;;;10.69;100.00;100400.00;5022074;28;20475;-79
2022/06/09 01:46:21;;;;;;;12.35;2.78;;;;;;;10.56;100.00;100372.91;5006343;28;20534;-80
2022/06/09 01:48:49;;;;;;;21.85;3.92;;;;;;;10.68;100.00;100392.09;5004375;28;20494;-80
2022/06/09 01:51:16;;;;;;;13.05;2.90;;;;;;;10.65;100.00;100387.09;5026325;28;20033;-80
2022/06/09 01:53:52;;;;;;;11.48;2.80;;;;;;;10.84;100.00;100405.34;4988838;28;20033;-79
2022/06/09 01:56:32;;;;;;;14.65;4.35;;;;;;;10.86;100.00;100414.06;5022098;28;20021;-79
2022/06/09 01:59:07;;;;;;;10.40;3.13;;;;;;;10.84;100.00;100409.91;5008227;28;20025;-80
2022/06/09 02:01:40;;;;;;;13.75;2.65;;;;;;;10.87;100.00;100414.91;4992839;28;20060;-78
2022/06/09 02:04:09;;;;;;;16.95;3.42;;;;;;;10.87;100.00;100423.81;5007247;28;20057;-79
2022/06/09 02:06:36;;;;;;;12.25;2.67;;;;;;;10.87;100.00;100420.28;5026068;28;20120;-79
2022/06/09 02:09:03;;;;;;;12.60;2.95;;;;;;;10.89;100.00;100427.16;4996330;28;20049;-79
2022/06/09 02:11:30;;;;;;;10.57;4.07;;;;;;;10.90;100.00;100426.16;5013850;28;20525;-79
2022/06/09 02:13:58;;;;;;;10.48;3.25;;;;;;;10.98;100.00;100425.19;5012331;28;20044;-79
2022/06/09 02:16:26;;;;;;;15.52;3.15;;;;;;;11.02;100.00;100421.13;4999801;28;20044;-80
2022/06/09 02:18:55;;;;;;;9.85;2.25;;;;;;;11.07;100.00;100432.16;5014347;28;20439;-79
2022/06/09 02:21:26;;;;;;;10.35;2.47;;;;;;;11.02;100.00;100409.53;5024601;28;20048;-80
2022/06/09 02:24:32;;;;;;;14.52;4.40;;;;;;;10.85;100.00;100377.44;5025939;28;20045;-80
2022/06/09 02:27:01;;;;;;;17.08;3.33;;;;;;;10.97;100.00;100402.00;5009966;28;20499;-78
2022/06/09 02:29:27;;;;;;;11.00;4.10;;;;;;;10.98;100.00;100407.22;5029192;28;20036;-78
2022/06/09 02:31:55;;;;;;;15.20;3.90;;;;;;;10.86;100.00;100397.94;5029561;28;20087;-82
2022/06/09 02:34:21;;;;;;;17.63;3.53;;;;;;;10.71;100.00;100395.25;5007558;28;20041;-80
2022/06/09 02:36:49;;;;;;;14.88;3.28;;;;;;;10.57;100.00;100393.41;5009818;28;20096;-82
2022/06/09 02:39:15;;;;;;;11.32;2.75;;;;;;;10.42;100.00;100363.81;4996366;28;20037;-82
2022/06/09 02:41:40;;;;;;;12.57;2.80;;;;;;;10.39;100.00;100357.97;5012514;28;20034;-81
2022/06/09 02:44:06;;;;;;;13.60;3.10;;;;;;;10.39;100.00;100353.44;5009711;28;20556;-82
2022/06/09 02:46:32;;;;;;;10.48;3.08;;;;;;;10.36;100.00;100352.97;5020879;28;20449;-80
2022/06/09 02:48:58;;;;;;;11.30;2.92;;;;;;;10.36;100.00;100353.81;5027213;28;20554;-81
2022/06/09 02:51:28;;;;;;;12.68;3.22;;;;;;;10.34;100.00;100350.47;5018949;28;20045;-81
2022/06/09 02:53:55;;;;;;;14.55;3.83;;;;;;;10.31;100.00;100337.41;5028456;28;20025;-80
2022/06/09 02:56:21;;;;;;;15.07;3.15;;;;;;;10.33;100.00;100362.25;5026215;28;21624;-80
2022/06/09 02:58:47;;;;;;;11.65;3.70;;;;;;;10.27;100.00;100354.88;5027340;28;20474;-80
2022/06/09 03:01:13;;;;;;;9.40;3.70;;;;;;;10.25;100.00;100348.84;5011600;28;20030;-80
2022/06/09 03:03:38;;;;;;;10.75;2.95;;;;;;;10.21;100.00;100339.47;4990571;28;20049;-81
2022/06/09 03:06:04;;;;;;;15.38;3.10;;;;;;;10.28;100.00;100351.19;5003792;28;20521;-82
2022/06/09 03:08:30;;;;;;;10.20;3.60;;;;;;;10.27;100.00;100347.69;5013488;28;20383;-80
2022/06/09 03:10:56;;;;;;;16.17;4.00;;;;;;;10.25;100.00;100343.47;5011083;28;20494;-81
2022/06/09 03:13:22;;;;;;;14.05;3.33;;;;;;;10.25;100.00;100338.09;5003256;28;20038;-80
2022/06/09 03:15:50;;;;;;;14.05;3.65;;;;;;;10.21;100.00;100320.66;5021889;28;20042;-81
2022/06/09 03:18:17;;;;;;;17.08;3.97;;;;;;;10.24;100.00;100331.91;5027677;28;20205;-79
2022/06/09 03:20:44;;;;;;;17.17;3.05;;;;;;;10.25;100.00;100324.69;5028543;28;20494;-80
2022/06/09 03:23:10;;;;;;;10.82;3.38;;;;;;;10.11;100.00;100316.41;5022228;28;20263;-80
2022/06/09 03:25:37;;;;;;;24.08;4.30;;;;;;;10.22;100.00;100320.50;5023496;28;20021;-79
2022/06/09 03:28:04;;;;;;;15.25;3.47;;;;;;;10.22;100.00;100335.78;5024294;28;20037;-79
2022/06/09 03:30:30;;;;;;;8.23;2.45;;;;;;;10.22;100.00;100335.78;5026507;28;20159;-81
2022/06/09 03:32:56;;;;;;;18.13;2.88;;;;;;;10.25;100.00;100340.78;5007468;28;20045;-81
2022/06/09 03:35:21;;;;;;;14.07;3.70;;;;;;;10.19;100.00;100331.63;5029287;28;20018;-81
2022/06/09 03:37:47;;;;;;;12.48;3.47;;;;;;;10.23;100.00;100332.06;5010508;28;20033;-80
2022/06/09 03:40:14;;;;;;;13.77;3.90;;;;;;;10.21;100.00;100336.78;5028710;28;20044;-80
2022/06/09 03:42:41;;;;;;;17.40;3.42;;;;;;;10.26;100.00;100337.91;5009519;28;20330;-79
2022/06/09 03:45:07;;;;;;;15.52;3.38;;;;;;;10.26;100.00;100337.09;5012193;28;20056;-79
2022/06/09 03:47:33;;;;;;;10.43;3.88;;;;;;;10.17;100.00;100308.66;5022791;28;20124;-79
2022/06/09 03:49:58;;;;;;;17.45;3.85;;;;;;;10.22;100.00;100317.00;5025754;28;20597;-80
2022/06/09 03:52:24;;;;;;;11.40;2.78;;;;;;;10.19;100.00;100310.13;4991968;28;20032;-79
2022/06/09 03:54:49;;;;;;;0.30;0.30;;;;;;;10.20;100.00;100322.53;5021265;28;20021;-79
2022/06/09 03:57:15;;;;;;;0.30;0.30;;;;;;;10.18;100.00;100329.09;5005669;28;20499;-79
2022/06/09 03:59:41;;;;;;;0.30;0.30;;;;;;;10.17;100.00;100332.81;5010366;28;20025;-79
2022/06/09 04:02:07;;;;;;;0.30;0.30;;;;;;;10.18;100.00;100339.84;5021713;28;20021;-79
2022/06/09 04:04:32;;;;;;;0.30;0.30;;;;;;;10.18;100.00;100334.47;4994182;28;20028;-82
2022/06/09 04:06:58;;;;;;;0.30;0.30;;;;;;;10.15;100.00;100326.78;5022596;28;20041;-81
2022/06/09 04:09:24;;;;;;;0.30;0.30;;;;;;;10.14;100.00;100312.53;4987916;28;20037;-80
2022/06/09 04:11:50;;;;;;;0.30;0.30;;;;;;;10.12;100.00;100312.69;5004806;28;20037;-79
2022/06/09 04:14:15;;;;;;;0.30;0.30;;;;;;;10.09;100.00;100305.00;5011310;28;20037;-79
2022/06/09 04:16:44;;;;;;;0.30;0.30;;;;;;;10.12;100.00;100309.19;5008630;28;20042;-80
2022/06/09 04:19:12;;;;;;;0.35;0.35;;;;;;;10.10;100.00;100306.66;5025121;28;20034;-79
2022/06/09 04:21:39;;;;;;;0.30;0.30;;;;;;;10.06;100.00;100293.81;5025763;28;20041;-79
2022/06/09 04:24:08;;;;;;;0.30;0.30;;;;;;;10.07;100.00;100301.66;5026180;28;20068;-80
2022/06/09 04:26:36;;;;;;;0.30;0.30;;;;;;;10.07;100.00;100301.66;4992483;28;20056;-80
2022/06/09 04:29:04;;;;;;;0.30;0.30;;;;;;;10.07;100.00;100280.19;5026606;28;20056;-79
2022/06/09 04:31:29;;;;;;;0.30;0.30;;;;;;;10.04;100.00;100256.38;5024876;28;20065;-78
2022/06/09 04:33:55;;;;;;;0.30;0.30;;;;;;;10.11;100.00;100283.34;5008720;28;20076;-80
2022/06/09 04:36:21;;;;;;;0.30;0.30;;;;;;;10.12;100.00;100271.56;5028982;28;20471;-81
2022/06/09 04:38:47;;;;;;;0.30;0.30;;;;;;;10.10;100.00;100249.44;5022247;28;20034;-80
2022/06/09 04:41:14;;;;;;;0.30;0.30;;;;;;;10.21;100.00;100265.06;5010132;28;20033;-80
2022/06/09 04:43:41;;;;;;;0.30;0.30;;;;;;;10.24;100.00;100266.56;4989967;28;20098;-80
2022/06/09 04:46:22;;;;;;;0.30;0.30;;;;;;;10.30;100.00;100277.44;4994884;28;20061;-78
2022/06/09 04:48:47;;;;;;;0.30;0.30;;;;;;;10.32;100.00;100274.59;5007653;28;20387;-79
2022/06/09 04:51:18;;;;;;;0.30;0.30;;;;;;;10.29;100.00;100278.47;5025649;28;20587;-79
2022/06/09 04:53:46;;;;;;;0.35;0.35;;;;;;;10.32;100.00;100274.59;5010552;28;20040;-80
2022/06/09 04:56:17;;;;;;;0.30;0.30;;;;;;;10.26;100.00;100264.53;4989755;28;20060;-79
2022/06/09 04:58:43;;;;;;;0.30;0.30;;;;;;;10.30;100.00;100265.88;5024368;28;20013;-79
2022/06/09 05:01:35;;;;;;;0.30;0.30;;;;;;;10.40;100.00;100260.19;5025698;28;20465;-79
2022/06/09 05:04:01;;;;;;;0.30;0.30;;;;;;;10.44;100.00;100262.31;5000573;28;20065;-79
2022/06/09 05:06:27;;;;;;;0.40;0.40;;;;;;;10.46;100.00;100252.22;5022307;28;20052;-79
2022/06/09 05:08:55;;;;;;;0.30;0.30;;;;;;;10.56;100.00;100246.56;5027464;28;20037;-79
2022/06/09 05:11:23;;;;;;;0.30;0.30;;;;;;;10.65;100.00;100241.91;5023356;28;20131;-78
2022/06/09 05:13:49;;;;;;;0.30;0.30;;;;;;;10.66;100.00;100227.44;5003611;28;20045;-79
2022/06/09 05:16:14;;;;;;;0.30;0.30;;;;;;;10.72;100.00;100224.84;5006660;28;20037;-78
2022/06/09 05:18:40;;;;;;;0.30;0.30;;;;;;;10.69;100.00;100232.41;5020617;28;20034;-78
2022/06/09 05:21:07;;;;;;;0.30;0.30;;;;;;;10.66;100.00;100219.38;5025184;28;20117;-78
2022/06/09 05:23:33;;;;;;;0.30;0.30;;;;;;;10.61;100.00;100202.97;5009433;28;20670;-78
2022/06/09 05:26:00;;;;;;;0.30;0.30;;;;;;;10.62;100.00;100202.78;5020907;28;20060;-77
2022/06/09 05:28:27;;;;;;;0.40;0.40;;;;;;;10.68;100.00;100203.88;5021512;28;20048;-81
2022/06/09 05:30:53;;;;;;;0.30;0.30;;;;;;;10.69;100.00;100201.00;4992589;28;20124;-78
2022/06/09 05:33:20;;;;;;;0.30;0.30;;;;;;;10.75;100.00;100204.78;4996704;28;20597;-79
2022/06/09 05:35:46;;;;;;;0.40;0.40;;;;;;;10.78;100.00;100212.47;5002995;28;20483;-79
2022/06/09 05:46:25;;;;;;;0.30;0.30;;;;;;;10.80;100.00;100194.31;5015159;28;20046;-78
2022/06/09 05:48:51;;;;;;;0.35;0.35;;;;;;;10.83;100.00;100203.84;4998245;28;20037;-79
2022/06/09 05:51:18;;;;;;;0.40;0.40;;;;;;;10.84;100.00;100190.19;5025856;28;20037;-80
2022/06/09 05:53:44;;;;;;;0.30;0.30;;;;;;;10.93;100.00;100188.22;5031510;28;20037;-79
2022/06/09 05:56:10;;;;;;;0.30;0.30;;;;;;;11.00;100.00;100189.94;5024616;28;20045;-77
2022/06/09 05:58:36;;;;;;;0.30;0.30;;;;;;;11.05;100.00;100175.09;5011992;28;20037;-79
2022/06/09 06:01:05;;;;;;;0.30;0.30;;;;;;;11.11;100.00;100179.69;5029442;28;20041;-79
2022/06/09 06:03:31;;;;;;;0.30;0.30;;;;;;;11.16;100.00;100179.94;5026004;28;20033;-78
2022/06/09 06:08:41;;;;;;;0.30;0.30;;;;;;;11.18;100.00;100170.66;5010684;28;20492;-78
2022/06/09 06:11:07;;;;;;;0.30;0.30;;;;;;;11.23;100.00;100162.00;5012503;28;20038;-77
2022/06/09 06:13:35;;;;;;;0.30;0.30;;;;;;;11.29;100.00;100142.38;5013718;28;20570;-78
2022/06/09 06:16:01;;;;;;;0.30;0.30;;;;;;;11.42;100.00;100144.31;5010422;28;20032;-77
2022/06/09 06:18:28;;;;;;;0.30;0.30;;;;;;;11.52;100.00;100134.03;4994962;28;20970;-76
2022/06/09 06:20:59;;;;;;;0.38;0.38;;;;;;;11.59;100.00;100142.16;5010712;28;20037;-80
2022/06/09 06:23:25;;;;;;;0.40;0.40;;;;;;;11.80;100.00;100147.47;5007847;28;20118;-78
2022/06/09 06:25:52;;;;;;;0.32;0.32;;;;;;;11.82;100.00;100128.41;4994689;28;20495;-77
2022/06/09 06:28:17;;;;;;;0.35;0.35;;;;;;;11.93;100.00;100144.03;4988844;28;20092;-77
2022/06/09 06:30:43;;;;;;;0.40;0.40;;;;;;;11.88;100.00;100139.28;5020798;28;20033;-79
2022/06/09 06:33:09;;;;;;;0.30;0.30;;;;;;;11.90;100.00;100130.13;5026185;28;20442;-77
2022/06/09 06:35:34;;;;;;;0.40;0.40;;;;;;;11.98;100.00;100138.88;5029909;28;20033;-79
2022/06/09 06:38:02;;;;;;;0.35;0.35;;;;;;;11.96;100.00;100127.50;4990545;28;20039;-77
2022/06/09 06:40:28;;;;;;;0.30;0.30;;;;;;;12.04;100.00;100121.94;5027104;28;20033;-78
2022/06/09 06:42:53;;;;;;;0.40;0.40;;;;;;;12.15;100.00;100122.38;5010257;28;20394;-78
2022/06/09 06:45:19;;;;;;;0.40;0.40;;;;;;;12.15;100.00;100123.22;5025152;28;20040;-79
2022/06/09 06:47:45;;;;;;;0.40;0.40;;;;;;;12.07;100.00;100110.75;5023805;28;20044;-78
2022/06/09 06:50:12;;;;;;;1.52;1.42;;;;;;;12.10;100.00;100110.34;4997405;28;20044;-79
2022/06/09 06:52:37;;;;;;;0.45;0.45;;;;;;;12.15;100.00;100114.31;5010558;28;20046;-79
2022/06/09 06:55:04;;;;;;;0.30;0.30;;;;;;;12.23;100.00;100097.94;5022916;28;20422;-78
2022/06/09 06:57:30;;;;;;;0.40;0.40;;;;;;;12.31;100.00;100101.28;5022767;28;20036;-78
2022/06/09 06:59:58;;;;;;;0.30;0.30;;;;;;;12.48;100.00;100098.22;5026526;28;20034;-78
2022/06/09 07:02:23;;;;;;;0.30;0.30;;;;;;;12.54;100.00;100090.16;5039793;28;20064;-79
2022/06/09 07:04:49;;;;;;;0.30;0.30;;;;;;;12.54;100.00;100089.28;5009650;28;20419;-77
2022/06/09 07:07:15;;;;;;;0.40;0.40;;;;;;;12.58;100.00;100084.34;4992398;28;20041;-77
2022/06/09 07:09:41;;;;;;;0.40;0.40;;;;;;;12.79;100.00;100086.84;5025675;28;20032;-77
2022/06/09 07:12:07;;;;;;;0.30;0.30;;;;;;;12.75;100.00;100096.38;5024208;28;20036;-78
2022/06/09 07:14:34;;;;;;;0.40;0.40;;;;;;;12.83;100.00;100088.06;5020912;28;20017;-77
2022/06/09 07:17:00;;;;;;;0.30;0.30;;;;;;;12.92;100.00;100083.31;4990561;28;20103;-78
2022/06/09 07:19:26;;;;;;;0.40;0.40;;;;;;;12.80;100.00;100055.28;5010899;28;20131;-77
2022/06/09 07:21:52;;;;;;;0.30;0.30;;;;;;;13.06;100.00;100086.84;5010800;28;20107;-77
2022/06/09 07:24:18;;;;;;;0.30;0.30;;;;;;;12.91;100.00;100089.75;4989126;28;20046;-76
2022/06/09 07:26:44;;;;;;;0.30;0.30;;;;;;;12.97;100.00;100086.22;5018333;28;20040;-79
2022/06/09 07:29:11;;;;;;;0.50;0.50;;;;;;;12.97;100.00;100078.97;5021767;28;20386;-78
2022/06/09 07:31:37;;;;;;;0.30;0.30;;;;;;;12.95;100.00;100094.53;5010543;28;20045;-77
2022/06/09 07:34:10;;;;;;;0.40;0.40;;;;;;;13.08;100.00;100087.47;5021862;28;20045;-79
2022/06/09 07:36:42;;;;;;;0.40;0.40;;;;;;;13.37;100.00;100086.22;5010658;28;20163;-77
2022/06/09 07:39:08;;;;;;;0.40;0.40;;;;;;;13.71;100.00;100073.47;5009897;28;20114;-78
2022/06/09 07:41:34;;;;;;;0.40;0.40;;;;;;;13.80;100.00;100066.78;5012094;28;20476;-77
2022/06/09 07:44:10;;;;;;;0.40;0.40;;;;;;;14.03;100.00;100083.31;5009841;28;20035;-79
2022/06/09 07:46:39;;;;;;;0.40;0.40;;;;;;;14.05;100.00;100072.25;5022793;28;20406;-79
2022/06/09 07:49:06;;;;;;;0.40;0.40;;;;;;;14.12;100.00;100091.16;5001477;28;20048;-79
2022/06/09 07:51:32;;;;;;;0.40;0.40;;;;;;;14.43;100.00;100080.38;5004019;28;20030;-79
2022/06/09 07:53:58;;;;;;;0.45;0.45;;;;;;;14.52;100.00;100070.97;4984684;28;20038;-80
2022/06/09 07:56:25;;;;;;;0.30;0.30;;;;;;;14.52;100.00;100076.38;5018248;28;20076;-77
2022/06/09 07:58:50;;;;;;;0.50;0.50;;;;;;;14.46;100.00;100074.53;4992350;28;20033;-77
2022/06/09 08:01:18;;;;;;;0.95;0.77;;;;;;;14.43;100.00;100082.25;4991724;28;20052;-77
2022/06/09 08:03:46;;;;;;;0.85;0.68;;;;;;;14.28;100.00;100080.66;4994460;28;20086;-77
2022/06/09 08:06:13;;;;;;;0.50;0.50;;;;;;;14.35;100.00;100082.53;4987890;28;20045;-78
2022/06/09 08:08:39;;;;;;;0.40;0.40;;;;;;;14.28;100.00;100090.66;5024792;28;20056;-78
2022/06/09 08:11:05;;;;;;;0.30;0.30;;;;;;;14.24;100.00;100075.94;4985118;28;20479;-77
2022/06/09 08:13:34;;;;;;;0.40;0.40;;;;;;;14.22;100.00;100086.13;5020103;28;20042;-77
2022/06/09 08:16:01;;;;;;;0.40;0.40;;;;;;;14.30;100.00;100084.00;5018337;28;20147;-77
2022/06/09 08:18:27;;;;;;;0.40;0.40;;;;;;;14.45;100.00;100081.00;5047227;28;20029;-75
2022/06/09 08:20:53;;;;;;;0.30;0.30;;;;;;;14.42;100.00;100086.84;5008606;28;20220;-76
2022/06/09 08:23:22;;;;;;;0.40;0.40;;;;;;;14.81;100.00;100087.63;4993056;28;20567;-76
2022/06/09 08:25:49;;;;;;;0.40;0.40;;;;;;;15.54;100.00;100080.72;5023706;28;20108;-75
2022/06/09 08:28:19;;;;;;;0.40;0.40;;;;;;;15.51;100.00;100056.81;4992282;28;20040;-76
2022/06/09 08:30:52;;;;;;;0.40;0.40;;;;;;;15.61;100.00;100067.91;5018395;28;20033;-75
2022/06/09 08:33:19;;;;;;;0.40;0.40;;;;;;;15.49;100.00;100069.75;5034803;28;20042;-76
2022/06/09 08:35:45;;;;;;;0.30;0.30;;;;;;;15.33;100.00;100061.16;4992296;28;20046;-78
2022/06/09 08:38:12;;;;;;;0.50;0.50;;;;;;;15.29;100.00;100059.09;5020105;28;20037;-75
2022/06/09 08:40:50;;;;;;;0.30;0.30;;;;;;;15.22;100.00;100067.31;5018344;28;20490;-76
2022/06/09 08:43:53;;;;;;;0.30;0.30;;;;;;;15.14;100.00;100067.59;5039959;28;20547;-78
2022/06/09 08:46:49;;;;;;;0.45;0.45;;;;;;;15.14;100.00;100064.88;4989245;28;20038;-78
2022/06/09 08:49:50;;;;;;;0.40;0.40;;;;;;;15.44;100.00;100072.28;5002697;28;20399;-77
2022/06/09 08:52:28;;;;;;;0.40;0.40;;;;;;;15.54;100.00;100072.59;5006844;28;20045;-76
2022/06/09 08:54:57;;;;;;;0.40;0.40;;;;;;;16.02;100.00;100072.69;5028398;28;20231;-77
2022/06/09 08:57:34;;;;;;;0.40;0.40;;;;;;;16.21;100.00;100067.22;5028044;28;20526;-76
2022/06/09 09:00:00;;;;;;;0.40;0.40;;;;;;;16.21;100.00;100083.50;5009675;28;20116;-76
2022/06/09 09:02:38;;;;;;;0.30;0.30;;;;;;;15.91;100.00;100083.47;5029032;28;20032;-76
2022/06/09 09:05:23;;;;;;;0.30;0.30;;;;;;;15.70;100.00;100077.44;5029721;28;20033;-77
2022/06/09 09:07:52;;;;;;;0.30;0.30;;;;;;;15.75;100.00;100080.31;5009943;28;20386;-76
2022/06/09 09:10:31;;;;;;;0.40;0.40;;;;;;;15.98;100.00;100073.34;4994464;28;20056;-77
2022/06/09 09:13:05;;;;;;;0.30;0.30;;;;;;;15.99;100.00;100086.69;5028398;28;20497;-76
2022/06/09 09:15:45;;;;;;;0.30;0.30;;;;;;;15.99;100.00;100086.69;5027101;28;20026;-77
2022/06/09 09:18:35;;;;;;;0.47;0.47;;;;;;;16.31;100.00;100078.34;4994297;28;20376;-76
2022/06/09 09:21:25;;;;;;;0.50;0.50;;;;;;;16.73;100.00;100082.97;5012284;28;20071;-76
2022/06/09 09:24:00;;;;;;;0.40;0.40;;;;;;;17.58;100.00;100088.00;5019864;28;20065;-77
2022/06/09 09:26:45;;;;;;;0.40;0.40;;;;;;;18.02;100.00;100082.97;5028072;28;20041;-76
2022/06/09 09:29:16;;;;;;;0.40;0.40;;;;;;;17.56;100.00;100085.50;5026351;28;20045;-77
2022/06/09 09:31:52;;;;;;;0.40;0.40;;;;;;;17.12;100.00;100100.50;5012185;28;20033;-76
2022/06/09 09:34:22;;;;;;;0.40;0.40;;;;;;;16.93;100.00;100094.34;5011513;28;20483;-76
2022/06/09 09:37:00;;;;;;;0.40;0.40;;;;;;;16.88;100.00;100099.66;5010164;28;20041;-77
2022/06/09 09:39:35;;;;;;;0.40;0.40;;;;;;;16.88;100.00;100094.22;4993993;28;20045;-77
2022/06/09 09:42:19;;;;;;;0.55;0.55;;;;;;;18.15;100.00;100103.59;5027769;28;20032;-76
2022/06/09 09:44:59;;;;;;;0.50;0.50;;;;;;;19.38;100.00;100108.50;5040867;28;20108;-77
2022/06/09 09:47:26;;;;;;;1.30;0.70;;;;;;;19.09;100.00;100109.44;5005919;28;20030;-75
2022/06/09 09:49:52;;;;;;;0.40;0.40;;;;;;;19.05;100.00;100102.84;5022902;28;20056;-76
2022/06/09 09:52:43;;;;;;;0.40;0.40;;;;;;;18.75;100.00;100107.75;5007856;28;20071;-76
2022/06/09 09:55:37;;;;;;;0.80;0.50;;;;;;;18.43;100.00;100108.25;5006240;28;20068;-76
2022/06/09 09:58:24;;;;;;;0.40;0.40;;;;;;;17.96;100.00;100109.22;5006094;28;20038;-76
2022/06/09 10:00:59;;;;;;;0.40;0.40;;;;;;;18.13;100.00;100112.03;5024790;28;20068;-76
2022/06/09 10:09:24;;;;;;;0.65;0.65;;;;;;;21.57;91.08;100106.53;5026121;28;20041;-76
2022/06/09 10:11:55;;;;;;;2.28;1.00;;;;;;;22.23;85.96;100114.22;4991380;28;20037;-76
2022/06/09 10:14:32;;;;;;;2.80;1.20;;;;;;;22.19;84.40;100093.94;5014448;28;20468;-75
2022/06/09 10:16:58;;;;;;;2.28;0.80;;;;;;;22.84;82.94;100117.09;5024744;28;20029;-76
2022/06/09 10:19:25;;;;;;;0.50;0.50;;;;;;;23.77;77.32;100126.13;5006373;28;20048;-76
2022/06/09 10:22:01;;;;;;;0.77;0.77;;;;;;;20.98;85.36;100154.69;5019463;28;20037;-75
2022/06/09 10:25:02;;;;;;;3.30;1.20;;;;;;;19.77;90.07;100136.66;5022986;28;20044;-76
2022/06/09 10:27:37;;;;;;;0.77;0.77;;;;;;;20.28;91.91;100152.84;5015584;28;20179;-75
2022/06/09 10:30:05;;;;;;;2.22;0.75;;;;;;;20.41;90.50;100153.28;5006614;28;20053;-76
2022/06/09 10:32:58;;;;;;;0.80;0.80;;;;;;;21.10;87.74;100148.25;5012408;28;20479;-75
2022/06/09 10:35:35;;;;;;;0.60;0.60;;;;;;;21.25;86.26;100162.88;5009209;28;20042;-75
2022/06/09 10:38:09;;;;;;;2.05;0.80;;;;;;;22.69;80.99;100158.19;4992636;28;20475;-75
2022/06/09 10:41:04;;;;;;;5.30;2.00;;;;;;;26.55;66.42;100140.94;5026979;28;20084;-76
2022/06/09 10:43:38;;;;;;;0.80;0.80;;;;;;;28.32;60.69;100148.31;5009551;28;20029;-75
2022/06/09 10:46:06;;;;;;;0.80;0.65;;;;;;;25.63;66.07;100147.50;4995504;28;20048;-75
2022/06/09 10:55:17;;;;;;;1.80;0.60;;;;;;;20.03;89.13;100173.28;5021723;28;20042;-76
2022/06/09 10:57:59;;;;;;;0.40;0.40;;;;;;;19.81;91.46;100173.25;5023140;28;20458;-76
2022/06/09 11:00:28;;;;;;;0.82;0.60;;;;;;;19.80;90.45;100171.59;5007734;28;20032;-76
2022/06/09 11:02:56;;;;;;;0.40;0.40;;;;;;;20.08;90.29;100170.59;5024827;28;20055;-75
2022/06/09 11:05:35;;;;;;;3.92;1.60;;;;;;;20.23;88.55;100172.72;5023095;28;20033;-76
2022/06/09 11:08:03;;;;;;;0.93;0.93;;;;;;;20.26;86.80;100166.75;5028805;28;20104;-76
2022/06/09 11:10:47;;;;;;;3.17;0.60;;;;;;;20.26;87.56;100160.47;5011250;28;20553;-75
2022/06/09 11:13:39;;;;;;;0.93;0.80;;;;;;;20.90;85.09;100155.16;5008393;28;20048;-75
2022/06/09 11:16:15;;;;;;;2.20;1.13;;;;;;;21.83;80.01;100152.09;4991407;28;20099;-74
2022/06/09 11:18:57;;;;;;;1.88;1.20;;;;;;;22.49;78.97;100148.84;4988089;28;20072;-76
2022/06/09 11:21:48;;;;;;;4.28;1.48;;;;;;;21.76;81.33;100178.84;5012811;28;20029;-74
2022/06/09 11:24:45;;;;;;;7.18;1.38;;;;;;;20.91;84.77;100181.44;5006643;28;20041;-76
2022/06/09 11:27:39;;;;;;;18.27;4.00;;;;;;;20.42;83.20;100178.66;5042877;28;20052;-75
2022/06/09 11:30:32;;;;;;;19.90;3.30;;;;;;;19.79;85.10;100193.66;5001619;28;20033;-77
2022/06/09 11:33:16;;;;;;;30.27;5.50;;;;;;;19.05;87.04;100197.34;5039721;28;20029;-76
2022/06/09 11:36:09;;;;;;;14.50;3.78;;;;;;;18.80;87.50;100209.44;5001463;28;20017;-76
2022/06/09 11:38:56;;;;;;;29.52;4.03;;;;;;;19.38;84.77;100210.19;5010236;28;20538;-76
2022/06/09 11:41:28;;;;;;;27.60;4.32;;;;;;;21.63;77.04;100199.28;5027928;28;20033;-76
2022/06/09 11:44:00;;;;;;;21.67;4.88;;;;;;;24.83;63.94;100164.38;5007509;28;20033;-76
2022/06/09 11:46:30;;;;;;;21.23;4.03;;;;;;;23.26;67.15;100193.66;5000387;28;20053;-78
2022/06/09 11:48:59;;;;;;;16.20;3.35;;;;;;;22.72;69.57;100207.78;4993895;28;20136;-77
2022/06/09 11:51:27;;;;;;;17.88;4.10;;;;;;;23.30;66.40;100188.44;5029012;28;20116;-77
2022/06/09 11:53:55;;;;;;;23.17;4.30;;;;;;;25.31;60.34;100192.13;4996198;28;20041;-79
2022/06/09 11:56:40;;;;;;;22.67;4.22;;;;;;;26.41;58.35;100201.47;5010821;28;20112;-78
2022/06/09 11:59:12;;;;;;;22.05;4.43;;;;;;;25.01;58.28;100192.03;5013248;28;20491;-78